Terminal Aerodrome Forecast
Issued by NWS

Current Version | Previous Version | Graphics & Text | Print | Product List | Glossary On
Versions: 1 2 3 4 5 6 7 8 9 10 11 12 13 14 15 16
058
FTUS41 KPBZ 231720
TAFMGW
TAF
KMGW 231720Z 2318/2418 27004KT P6SM SCT040
     FM240900 35004KT P6SM BKN050
     FM241100 36004KT P6SM BKN025
     FM241700 35005KT P6SM SCT070=

USA.gov is the U.S. government's official web portal to all federal, state and local government web resources and services.